createdAt,value
2017-09-28T00:01:38.172Z,99.90
2017-09-28T00:04:06.516Z,99.90
2017-09-28T00:06:34.117Z,99.90
2017-09-28T00:09:02.776Z,99.90
2017-09-28T00:11:30.452Z,99.90
2017-09-28T00:13:58.796Z,99.90
2017-09-28T00:16:26.396Z,99.90
2017-09-28T00:18:54.054Z,99.90
2017-09-28T00:21:21.685Z,99.90
2017-09-28T00:23:49.268Z,99.90
2017-09-28T00:26:16.865Z,99.90
2017-09-28T00:28:44.464Z,99.90
2017-09-28T00:31:12.119Z,99.90
2017-09-28T00:33:39.926Z,99.90
2017-09-28T00:36:07.497Z,99.90
2017-09-28T00:38:35.840Z,99.90
2017-09-28T00:41:03.799Z,99.90
2017-09-28T00:43:31.412Z,99.90
2017-09-28T00:45:59.775Z,99.90
2017-09-28T00:48:27.347Z,99.90
2017-09-28T00:50:55.924Z,99.90
2017-09-28T00:53:23.586Z,99.90
2017-09-28T00:55:51.164Z,99.90
2017-09-28T00:58:19.532Z,99.90
2017-09-28T01:00:47.956Z,99.90
2017-09-28T01:03:15.569Z,99.90
2017-09-28T01:05:43.140Z,99.80
2017-09-28T01:08:11.635Z,99.30
2017-09-28T01:10:40.047Z,99.00
2017-09-28T01:13:08.017Z,99.00
2017-09-28T01:15:36.185Z,98.60
2017-09-28T01:18:04.758Z,98.50
2017-09-28T01:20:32.383Z,98.40
2017-09-28T01:22:59.960Z,98.40
2017-09-28T01:25:28.420Z,98.40
2017-09-28T01:27:56.083Z,98.40
2017-09-28T01:30:23.747Z,98.50
2017-09-28T01:32:51.700Z,98.50
2017-09-28T01:35:19.390Z,98.60
2017-09-28T01:37:47.732Z,98.80
2017-09-28T01:40:15.328Z,98.80
2017-09-28T01:42:43.698Z,98.90
2017-09-28T01:45:11.281Z,98.90
2017-09-28T01:47:39.649Z,99.00
2017-09-28T01:50:08.020Z,98.90
2017-09-28T01:52:35.628Z,98.90
2017-09-28T01:55:04.008Z,98.80
2017-09-28T01:57:31.620Z,98.60
2017-09-28T01:59:59.192Z,98.50
2017-09-28T02:02:27.561Z,98.60
2017-09-28T02:04:55.225Z,98.60
2017-09-28T02:07:22.824Z,98.50
2017-09-28T02:09:50.397Z,98.50
2017-09-28T02:12:18.004Z,98.40
2017-09-28T02:14:45.588Z,98.60
2017-09-28T02:17:14.106Z,98.50
2017-09-28T02:19:41.681Z,98.50
2017-09-28T02:22:09.264Z,98.50
2017-09-28T02:24:36.864Z,98.70
2017-09-28T02:27:04.440Z,99.10
2017-09-28T02:29:32.035Z,99.00
2017-09-28T02:31:59.611Z,99.10
2017-09-28T02:34:27.208Z,99.10
2017-09-28T02:36:54.781Z,99.10
2017-09-28T02:39:22.612Z,99.20
2017-09-28T02:41:50.984Z,99.10
2017-09-28T02:44:18.555Z,99.10
2017-09-28T02:46:46.917Z,99.30
2017-09-28T02:49:14.497Z,99.30
2017-09-28T02:51:42.968Z,99.60
2017-09-28T02:54:10.546Z,99.50
2017-09-28T02:56:38.908Z,99.60
2017-09-28T02:59:06.482Z,99.60
2017-09-28T03:01:34.944Z,99.50
2017-09-28T03:04:03.940Z,99.40
2017-09-28T03:06:31.696Z,99.50
2017-09-28T03:08:59.267Z,99.30
2017-09-28T03:11:26.836Z,99.30
2017-09-28T03:13:55.205Z,99.60
2017-09-28T03:16:22.873Z,99.20
2017-09-28T03:18:50.528Z,99.30
2017-09-28T03:21:18.604Z,99.00
2017-09-28T03:23:46.201Z,99.20
2017-09-28T03:26:13.827Z,99.20
2017-09-28T03:28:42.933Z,99.10
2017-09-28T03:31:11.282Z,99.10
2017-09-28T03:33:38.959Z,99.10
2017-09-28T03:36:06.532Z,99.00
2017-09-28T03:38:34.896Z,99.10
2017-09-28T03:41:04.812Z,99.20
2017-09-28T03:43:32.480Z,99.20
2017-09-28T03:46:00.052Z,99.30
2017-09-28T03:48:28.429Z,99.50
2017-09-28T03:50:56.772Z,99.90
2017-09-28T03:53:24.773Z,99.60
2017-09-28T03:55:53.116Z,99.60
2017-09-28T03:58:20.688Z,99.60
2017-09-28T04:00:48.285Z,99.60
2017-09-28T04:03:16.652Z,99.50
2017-09-28T04:05:45.017Z,99.80
2017-09-28T04:08:12.693Z,99.80
2017-09-28T04:10:40.665Z,99.50
2017-09-28T04:13:08.323Z,99.70
2017-09-28T04:15:35.892Z,99.60
2017-09-28T04:18:04.129Z,99.70
2017-09-28T04:20:31.701Z,99.80
2017-09-28T04:22:59.300Z,99.80
2017-09-28T04:25:27.640Z,99.90
2017-09-28T04:27:55.431Z,99.90
2017-09-28T04:30:23.092Z,99.90
2017-09-28T04:32:50.669Z,99.90
2017-09-28T04:35:19.035Z,99.90
2017-09-28T04:37:46.608Z,99.90
2017-09-28T04:40:15.073Z,99.90
2017-09-28T04:42:42.738Z,99.90
2017-09-28T04:45:10.400Z,99.90
2017-09-28T04:47:38.063Z,99.90
2017-09-28T04:50:06.432Z,99.90
2017-09-28T04:52:34.102Z,99.90
2017-09-28T04:55:02.997Z,99.90
2017-09-28T04:57:30.580Z,99.90
2017-09-28T04:59:59.035Z,99.90
2017-09-28T05:02:27.065Z,99.90
2017-09-28T05:04:54.872Z,99.90
2017-09-28T05:07:22.452Z,99.90
2017-09-28T05:09:51.101Z,99.90
2017-09-28T05:12:18.784Z,99.90
2017-09-28T05:14:46.360Z,99.90
2017-09-28T05:17:14.933Z,99.90
2017-09-28T05:19:42.505Z,99.90
2017-09-28T05:22:10.877Z,99.90
2017-09-28T05:24:39.242Z,99.90
2017-09-28T05:27:06.833Z,99.90
2017-09-28T05:29:35.195Z,99.90
2017-09-28T05:32:04.081Z,99.90
2017-09-28T05:34:31.680Z,99.90
2017-09-28T05:36:59.256Z,99.90
2017-09-28T05:39:26.862Z,99.90
2017-09-28T05:41:54.437Z,99.90
2017-09-28T05:44:22.820Z,99.90
2017-09-28T05:46:51.156Z,99.90
2017-09-28T05:49:18.732Z,99.90
2017-09-28T05:51:47.844Z,99.90
2017-09-28T05:54:15.501Z,99.90
2017-09-28T05:56:43.096Z,99.90
2017-09-28T05:59:10.692Z,99.90
2017-09-28T06:01:38.268Z,99.90
2017-09-28T06:04:05.869Z,99.90
2017-09-28T06:06:34.207Z,99.90
2017-09-28T06:09:02.832Z,99.90
2017-09-28T06:11:31.185Z,99.90
2017-09-28T06:14:01.200Z,99.90
2017-09-28T06:16:28.791Z,99.90
2017-09-28T06:18:57.128Z,99.90
2017-09-28T06:21:24.821Z,99.90
2017-09-28T06:23:53.172Z,99.90
2017-09-28T06:26:20.784Z,99.90
2017-09-28T06:28:48.357Z,99.60
2017-09-28T06:31:15.976Z,99.20
2017-09-28T06:33:43.553Z,98.90
2017-09-28T06:36:11.912Z,99.20
2017-09-28T06:38:40.576Z,99.30
2017-09-28T06:41:08.149Z,99.30
2017-09-28T06:43:35.744Z,99.00
2017-09-28T06:46:04.892Z,99.00
2017-09-28T06:48:32.524Z,99.00
2017-09-28T06:51:01.028Z,99.20
2017-09-28T06:53:28.640Z,98.90
2017-09-28T06:55:56.982Z,99.00
2017-09-28T06:58:24.560Z,98.90
2017-09-28T07:00:52.940Z,99.00
2017-09-28T07:03:20.511Z,99.00
2017-09-28T07:05:48.879Z,99.50
2017-09-28T07:08:16.456Z,99.50
2017-09-28T07:10:44.824Z,99.20
2017-09-28T07:13:12.400Z,99.20
2017-09-28T07:15:40.789Z,99.20
2017-09-28T07:18:08.417Z,99.20
2017-09-28T07:20:35.996Z,99.50
2017-09-28T07:23:04.024Z,99.60
2017-09-28T07:25:31.604Z,99.50
2017-09-28T07:27:59.205Z,99.30
2017-09-28T07:30:26.785Z,99.20
2017-09-28T07:32:54.402Z,99.00
2017-09-28T07:35:22.753Z,99.00
2017-09-28T07:37:50.442Z,98.90
2017-09-28T07:40:18.028Z,98.40
2017-09-28T07:42:46.368Z,98.20
2017-09-28T07:45:13.964Z,98.20
2017-09-28T07:47:42.326Z,97.90
2017-09-28T07:50:09.985Z,97.90
2017-09-28T07:52:37.580Z,97.80
2017-09-28T07:55:05.210Z,98.10
2017-09-28T07:57:32.869Z,97.50
2017-09-28T08:00:01.840Z,96.80
2017-09-28T08:02:29.463Z,96.70
2017-09-28T08:04:57.084Z,96.80
2017-09-28T08:07:26.208Z,96.10
2017-09-28T08:09:54.564Z,96.20
2017-09-28T08:12:22.956Z,96.00
2017-09-28T08:14:51.292Z,95.70
2017-09-28T08:17:18.925Z,95.70
2017-09-28T08:19:46.526Z,96.00
2017-09-28T08:22:14.159Z,96.00
2017-09-28T08:24:41.732Z,96.10
2017-09-28T08:27:09.307Z,96.70
2017-09-28T08:29:36.999Z,96.60
2017-09-28T08:32:05.371Z,96.70
2017-09-28T08:34:32.949Z,96.60
2017-09-28T08:37:02.144Z,96.20
2017-09-28T08:39:30.617Z,96.00
2017-09-28T08:41:59.003Z,96.70
2017-09-28T08:44:27.347Z,96.50
2017-09-28T08:46:54.965Z,96.50
2017-09-28T08:49:22.536Z,96.60
2017-09-28T08:51:50.153Z,96.60
2017-09-28T08:54:17.812Z,96.50
2017-09-28T08:56:45.387Z,95.80
2017-09-28T08:59:13.784Z,94.70
2017-09-28T09:01:41.364Z,94.70
2017-09-28T09:04:08.937Z,95.00
2017-09-28T09:06:36.560Z,95.10
2017-09-28T09:09:04.897Z,94.70
2017-09-28T09:11:32.501Z,94.70
2017-09-28T09:14:01.813Z,94.20
2017-09-28T09:16:29.539Z,94.10
2017-09-28T09:18:57.113Z,94.40
2017-09-28T09:21:25.457Z,94.80
2017-09-28T09:23:53.173Z,94.80
2017-09-28T09:26:20.783Z,94.70
2017-09-28T09:28:48.416Z,95.10
2017-09-28T09:31:16.316Z,94.00
2017-09-28T09:33:43.888Z,93.70
2017-09-28T09:36:11.510Z,93.70
2017-09-28T09:38:39.095Z,93.40
2017-09-28T09:41:06.780Z,93.70
2017-09-28T09:43:34.356Z,93.00
2017-09-28T09:46:03.980Z,92.00
2017-09-28T09:48:31.616Z,91.90
2017-09-28T09:50:59.191Z,92.20
2017-09-28T09:53:27.576Z,89.90
2017-09-28T09:55:55.955Z,87.80
2017-09-28T09:58:24.311Z,88.30
2017-09-28T10:00:51.929Z,88.20
2017-09-28T10:03:19.535Z,87.60
2017-09-28T10:05:47.872Z,84.10
2017-09-28T10:08:20.269Z,84.10
2017-09-28T10:10:49.615Z,82.40
2017-09-28T10:13:20.087Z,83.50
2017-09-28T10:15:53.749Z,83.50
2017-09-28T10:18:22.112Z,86.00
2017-09-28T10:20:50.452Z,85.50
2017-09-28T10:23:18.052Z,85.50
2017-09-28T10:25:46.388Z,85.90
2017-09-28T10:28:14.020Z,85.80
2017-09-28T10:30:41.587Z,87.10
2017-09-28T10:33:09.162Z,87.30
2017-09-28T10:35:36.800Z,88.00
2017-09-28T10:38:04.432Z,88.50
2017-09-28T10:40:32.093Z,90.20
2017-09-28T10:42:59.748Z,90.40
2017-09-28T10:45:27.317Z,90.20
2017-09-28T10:47:55.672Z,90.20
2017-09-28T10:50:23.265Z,90.30
2017-09-28T10:52:51.627Z,90.00
2017-09-28T10:55:19.297Z,90.00
2017-09-28T10:57:47.643Z,89.20
2017-09-28T11:00:15.232Z,89.20
2017-09-28T11:02:42.900Z,87.70
2017-09-28T11:05:10.472Z,87.30
2017-09-28T11:07:38.932Z,85.10
2017-09-28T11:10:06.604Z,85.00
2017-09-28T11:12:34.264Z,85.10
2017-09-28T11:15:03.745Z,81.60
2017-09-28T11:17:32.105Z,81.10
2017-09-28T11:19:59.676Z,80.90
2017-09-28T11:22:27.268Z,78.50
2017-09-28T11:24:54.842Z,76.90
2017-09-28T11:27:23.216Z,76.90
2017-09-28T11:29:50.876Z,76.80
2017-09-28T11:32:18.478Z,77.50
2017-09-28T11:34:46.049Z,76.90
2017-09-28T11:37:13.764Z,78.10
2017-09-28T11:39:42.135Z,79.00
2017-09-28T11:42:09.732Z,78.20
2017-09-28T11:44:37.368Z,80.70
2017-09-28T11:47:05.225Z,78.70
2017-09-28T11:49:32.804Z,80.10
2017-09-28T11:52:02.892Z,81.00
2017-09-28T11:54:30.487Z,81.00
2017-09-28T11:56:58.831Z,82.30
2017-09-28T11:59:26.474Z,82.20
2017-09-28T12:01:54.048Z,81.50
2017-09-28T12:04:21.976Z,83.90
2017-09-28T12:06:49.540Z,84.50
2017-09-28T12:09:17.117Z,86.50
2017-09-28T12:11:44.713Z,87.60
2017-09-28T12:14:12.316Z,88.30
2017-09-28T12:16:40.053Z,89.60
2017-09-28T12:19:08.404Z,90.80
2017-09-28T12:21:36.516Z,90.80
2017-09-28T12:24:04.848Z,91.60
2017-09-28T12:26:32.493Z,91.50
2017-09-28T12:29:01.781Z,91.70
2017-09-28T12:31:29.357Z,91.70
2017-09-28T12:33:57.245Z,91.30
2017-09-28T12:36:24.821Z,91.70
2017-09-28T12:38:52.596Z,91.60
2017-09-28T12:41:20.257Z,91.70
2017-09-28T12:43:47.836Z,90.60
2017-09-28T12:46:16.192Z,91.30
2017-09-28T12:48:43.851Z,91.30
2017-09-28T12:51:11.456Z,91.60
2017-09-28T12:53:39.080Z,92.20
2017-09-28T12:56:06.853Z,91.10
2017-09-28T12:58:34.429Z,91.50
2017-09-28T13:01:03.889Z,91.90
2017-09-28T13:03:31.492Z,91.90
2017-09-28T13:06:00.140Z,91.70
2017-09-28T13:08:27.819Z,91.70
2017-09-28T13:10:55.389Z,92.30
2017-09-28T13:13:23.881Z,92.40
2017-09-28T13:15:52.224Z,92.80
2017-09-28T13:18:19.812Z,92.80
2017-09-28T13:20:47.416Z,92.20
2017-09-28T13:23:15.265Z,92.70
2017-09-28T13:25:42.896Z,92.70
2017-09-28T13:28:10.495Z,92.40
2017-09-28T13:30:38.121Z,92.40
2017-09-28T13:33:05.889Z,92.10
2017-09-28T13:35:33.461Z,92.00
2017-09-28T13:38:03.027Z,91.50
2017-09-28T13:40:30.616Z,91.50
2017-09-28T13:42:58.276Z,91.90
2017-09-28T13:45:26.656Z,92.30
2017-09-28T13:47:54.324Z,92.30
2017-09-28T13:50:22.705Z,91.90
2017-09-28T13:52:51.044Z,92.30
2017-09-28T13:55:18.657Z,92.30
2017-09-28T13:57:46.997Z,92.40
2017-09-28T14:00:14.589Z,92.30
2017-09-28T14:02:42.947Z,92.30
2017-09-28T14:05:10.542Z,92.30
2017-09-28T14:07:38.156Z,92.60
2017-09-28T14:10:05.799Z,92.70
2017-09-28T14:12:33.408Z,93.10
2017-09-28T14:15:02.174Z,93.40
2017-09-28T14:17:29.888Z,93.50
2017-09-28T14:19:57.523Z,93.60
2017-09-28T14:22:25.101Z,93.30
2017-09-28T14:24:53.564Z,92.70
2017-09-28T14:27:21.160Z,92.70
2017-09-28T14:29:48.752Z,93.10
2017-09-28T14:32:16.324Z,92.80
2017-09-28T14:34:44.004Z,92.40
2017-09-28T14:37:11.677Z,92.70
2017-09-28T14:39:40.148Z,92.70
2017-09-28T14:42:08.488Z,92.80
2017-09-28T14:44:36.089Z,92.70
2017-09-28T14:47:04.775Z,92.70
2017-09-28T14:49:32.380Z,92.70
2017-09-28T14:51:59.967Z,92.60
2017-09-28T14:54:27.549Z,92.70
2017-09-28T14:56:55.149Z,93.00
2017-09-28T14:59:22.733Z,93.50
2017-09-28T15:01:50.327Z,93.50
2017-09-28T15:04:17.895Z,93.70
2017-09-28T15:06:45.670Z,93.70
2017-09-28T15:09:13.252Z,93.60
2017-09-28T15:11:41.594Z,93.70
2017-09-28T15:14:09.269Z,93.70
2017-09-28T15:16:37.606Z,93.80
2017-09-28T15:19:05.209Z,93.90
2017-09-28T15:21:32.784Z,94.00
2017-09-28T15:24:02.173Z,94.10
2017-09-28T15:26:29.838Z,94.10
2017-09-28T15:28:58.196Z,94.30
2017-09-28T15:31:25.777Z,94.30
2017-09-28T15:33:53.372Z,94.60
2017-09-28T15:36:20.999Z,94.40
2017-09-28T15:38:48.771Z,94.30
2017-09-28T15:41:16.340Z,94.30
2017-09-28T15:43:44.680Z,94.50
2017-09-28T15:46:12.280Z,94.50
2017-09-28T15:48:40.620Z,94.40
2017-09-28T15:51:08.212Z,94.40
2017-09-28T15:53:36.584Z,94.30
2017-09-28T15:56:04.248Z,94.30
2017-09-28T15:58:31.816Z,94.50
2017-09-28T16:01:01.105Z,94.60
2017-09-28T16:03:28.773Z,94.60
2017-09-28T16:05:56.431Z,94.60
2017-09-28T16:08:24.096Z,94.80
2017-09-28T16:10:52.248Z,95.10
2017-09-28T16:13:19.825Z,95.30
2017-09-28T16:15:47.492Z,95.50
2017-09-28T16:18:15.088Z,95.80
2017-09-28T16:20:42.660Z,95.60
2017-09-28T16:23:10.257Z,95.80
2017-09-28T16:25:37.828Z,95.70
2017-09-28T16:28:06.192Z,95.90
2017-09-28T16:30:33.760Z,95.90
2017-09-28T16:33:02.880Z,95.90
2017-09-28T16:35:31.252Z,95.80
2017-09-28T16:37:58.851Z,96.00
2017-09-28T16:40:26.416Z,96.00
2017-09-28T16:42:54.037Z,96.30
2017-09-28T16:45:22.411Z,96.20
2017-09-28T16:47:50.076Z,96.30
2017-09-28T16:50:17.684Z,96.40
2017-09-28T16:52:45.248Z,96.40
2017-09-28T16:55:12.849Z,96.40
2017-09-28T16:57:41.360Z,96.40
2017-09-28T17:00:09.740Z,96.60
2017-09-28T17:02:38.077Z,96.60
2017-09-28T17:05:05.644Z,96.50
2017-09-28T17:07:33.320Z,96.50
2017-09-28T17:10:03.008Z,96.60
2017-09-28T17:12:30.608Z,96.50
2017-09-28T17:14:58.953Z,96.80
2017-09-28T17:17:26.820Z,96.80
2017-09-28T17:19:54.397Z,97.10
2017-09-28T17:22:22.081Z,97.40
2017-09-28T17:24:50.424Z,97.20
2017-09-28T17:27:18.040Z,97.10
2017-09-28T17:29:45.663Z,97.20
2017-09-28T17:32:13.237Z,97.30
2017-09-28T17:34:41.613Z,97.40
2017-09-28T17:37:09.191Z,97.40
2017-09-28T17:39:37.648Z,97.70
2017-09-28T17:42:05.232Z,97.60
2017-09-28T17:44:33.592Z,97.70
2017-09-28T17:47:03.073Z,97.60
2017-09-28T17:49:30.696Z,97.70
2017-09-28T17:51:58.312Z,97.50
2017-09-28T17:54:25.880Z,97.50
2017-09-28T17:56:53.616Z,97.40
2017-09-28T17:59:21.210Z,97.30
2017-09-28T18:01:49.574Z,97.30
2017-09-28T18:04:17.241Z,97.30
2017-09-28T18:06:45.932Z,97.20
2017-09-28T18:09:13.596Z,97.20
2017-09-28T18:11:41.993Z,97.10
2017-09-28T18:14:10.364Z,96.80
2017-09-28T18:16:38.704Z,96.60
2017-09-28T18:19:06.337Z,96.60
2017-09-28T18:21:33.903Z,96.90
2017-09-28T18:24:03.840Z,96.30
2017-09-28T18:26:31.437Z,96.30
2017-09-28T18:28:59.010Z,96.50
2017-09-28T18:31:27.372Z,96.60
2017-09-28T18:33:55.712Z,96.70
2017-09-28T18:36:23.407Z,96.70
2017-09-28T18:38:51.072Z,96.70
2017-09-28T18:41:18.667Z,96.80
2017-09-28T18:43:46.241Z,96.70
2017-09-28T18:46:14.169Z,96.50
2017-09-28T18:48:42.117Z,96.60
2017-09-28T18:51:09.801Z,96.50
2017-09-28T18:53:37.397Z,96.30
2017-09-28T18:56:04.975Z,96.40
2017-09-28T18:58:32.568Z,96.20
2017-09-28T19:01:00.141Z,96.20
2017-09-28T19:03:27.914Z,96.10
2017-09-28T19:05:56.260Z,96.30
2017-09-28T19:08:23.833Z,96.00
2017-09-28T19:10:51.432Z,96.00
2017-09-28T19:13:19.012Z,96.00
2017-09-28T19:15:46.614Z,95.90
2017-09-28T19:18:14.192Z,96.00
2017-09-28T19:20:41.784Z,96.00
2017-09-28T19:23:09.395Z,95.90
2017-09-28T19:25:36.971Z,95.90
2017-09-28T19:28:04.641Z,96.00
2017-09-28T19:30:32.216Z,95.90
2017-09-28T19:33:01.515Z,96.00
2017-09-28T19:35:29.863Z,96.10
2017-09-28T19:37:57.479Z,96.10
2017-09-28T19:40:25.308Z,96.00
2017-09-28T19:42:54.410Z,96.10
2017-09-28T19:45:22.784Z,96.20
2017-09-28T19:47:50.351Z,96.10
2017-09-28T19:50:18.712Z,96.20
2017-09-28T19:52:47.052Z,96.30
2017-09-28T19:55:14.657Z,96.30
2017-09-28T19:57:42.361Z,96.30
2017-09-28T20:00:09.980Z,96.50
2017-09-28T20:02:37.653Z,96.30
2017-09-28T20:05:05.221Z,96.30
2017-09-28T20:07:33.581Z,96.20
2017-09-28T20:10:03.010Z,96.20
2017-09-28T20:12:31.473Z,96.20
2017-09-28T20:14:59.053Z,96.20
2017-09-28T20:17:27.416Z,96.20
2017-09-28T20:19:54.992Z,96.20
2017-09-28T20:22:23.355Z,96.00
2017-09-28T20:24:51.017Z,96.00
2017-09-28T20:27:18.888Z,96.00
2017-09-28T20:29:46.456Z,95.90
2017-09-28T20:32:14.824Z,96.00
2017-09-28T20:34:42.488Z,95.90
2017-09-28T20:37:10.066Z,96.00
2017-09-28T20:39:38.436Z,96.00
2017-09-28T20:42:06.781Z,96.00
2017-09-28T20:44:34.465Z,96.00
2017-09-28T20:47:03.630Z,96.00
2017-09-28T20:49:31.236Z,96.10
2017-09-28T20:51:59.572Z,96.20
2017-09-28T20:54:27.372Z,96.20
2017-09-28T20:56:54.953Z,96.20
2017-09-28T20:59:23.297Z,96.50
2017-09-28T21:01:50.913Z,96.50
2017-09-28T21:04:18.485Z,96.60
2017-09-28T21:06:46.081Z,96.90
2017-09-28T21:09:13.693Z,97.10
2017-09-28T21:11:41.280Z,97.10
2017-09-28T21:14:08.856Z,97.20
2017-09-28T21:16:36.457Z,97.20
2017-09-28T21:19:04.788Z,97.10
2017-09-28T21:21:32.408Z,97.10
2017-09-28T21:24:00.039Z,97.00
2017-09-28T21:26:27.610Z,97.10
2017-09-28T21:28:55.972Z,97.00
2017-09-28T21:31:23.552Z,97.00
2017-09-28T21:33:52.015Z,96.90
2017-09-28T21:36:19.592Z,96.90
2017-09-28T21:38:48.160Z,96.80
2017-09-28T21:41:15.731Z,96.80
2017-09-28T21:43:44.109Z,96.60
2017-09-28T21:46:11.700Z,96.60
2017-09-28T21:48:39.277Z,96.50
2017-09-28T21:51:06.873Z,96.40
2017-09-28T21:53:34.444Z,96.30
2017-09-28T21:56:02.909Z,96.30
2017-09-28T21:58:30.504Z,96.30
2017-09-28T22:00:58.839Z,96.60
2017-09-28T22:03:26.636Z,96.60
2017-09-28T22:05:54.299Z,96.50
2017-09-28T22:08:21.868Z,96.50
2017-09-28T22:10:50.232Z,96.50
2017-09-28T22:13:18.083Z,96.50
2017-09-28T22:15:45.677Z,96.50
2017-09-28T22:18:14.040Z,96.50
2017-09-28T22:20:41.615Z,96.50
2017-09-28T22:23:09.377Z,96.40
2017-09-28T22:25:36.948Z,96.40
2017-09-28T22:28:05.294Z,96.30
2017-09-28T22:30:32.904Z,96.30
2017-09-28T22:33:01.401Z,96.20
2017-09-28T22:35:29.013Z,96.20
2017-09-28T22:37:56.613Z,96.10
2017-09-28T22:40:24.189Z,96.00
2017-09-28T22:42:52.557Z,96.00
2017-09-28T22:45:20.137Z,95.90
2017-09-28T22:47:47.741Z,96.00
2017-09-28T22:50:15.324Z,96.00
2017-09-28T22:52:43.784Z,95.90
2017-09-28T22:55:12.884Z,95.80
2017-09-28T22:57:41.249Z,95.60
2017-09-28T23:00:08.820Z,95.80
2017-09-28T23:02:36.479Z,95.90
2017-09-28T23:05:04.073Z,95.90
2017-09-28T23:07:31.652Z,95.80
2017-09-28T23:09:59.248Z,95.80
2017-09-28T23:12:26.821Z,95.90
2017-09-28T23:14:54.650Z,95.90
2017-09-28T23:17:22.220Z,96.00
2017-09-28T23:19:49.797Z,96.00
2017-09-28T23:22:17.396Z,96.00
2017-09-28T23:24:45.733Z,96.60
2017-09-28T23:27:13.429Z,96.30
2017-09-28T23:29:41.769Z,96.20
2017-09-28T23:32:09.368Z,96.20
2017-09-28T23:34:37.709Z,96.50
2017-09-28T23:37:05.305Z,96.50
2017-09-28T23:39:33.640Z,96.40
2017-09-28T23:42:02.968Z,96.80
2017-09-28T23:44:30.541Z,96.40
2017-09-28T23:46:58.924Z,96.40
2017-09-28T23:49:27.263Z,96.30
2017-09-28T23:51:54.833Z,96.30
2017-09-28T23:54:22.516Z,96.50
2017-09-28T23:56:50.108Z,96.70
2017-09-28T23:59:17.680Z,96.70
